Aeroporto :
LOGIN :

Iscrizione | Disclaimer

   EN    FR    IT 

 










Sommario :    VFR   VFR Marginale   IFR   IFR Intensivo   IFR Molto Intensivo
Visibilità : 
Base nubi : 
>= 8 km
>= 3000ft
5 / 8 km
1000 / 3000 ft
1500m / 5 km
500 / 1000 ft
800 / 1500m
200 / 500 ft
< 800m
< 200 ft
Simboli :   Temporali  Nebbia  Neve Forte  Precipitazioni Forti  Vento > 20 kt
SIGMETs :   Varie  Temporali  Ghiacco  Turbolenza  Onda orograficha  Ceneri Vulcaniche






- Altitudine del aeroporto : 204 ft
- Codice IATA : AGF


LFBA - Agen

ULTIMO METAR :
  • 271030Z AUTO 29010KT 270V330 9999 SCT029 BKN037 BKN046 17/11 Q1014 TEMPO SCT025TCU

METARs OBSOLETI :
  • 271000Z AUTO 29009KT 240V320 9999 FEW028 SCT036 OVC058 17/11 Q1014 TEMPO SCT025TCU
  • 270930Z AUTO 29009KT 9999 FEW022 SCT034 BKN043 16/12 Q1014 BECMG SCT015TCU BKN050
  • 270900Z AUTO 28008KT 240V330 9999 BKN018 BKN034 BKN040 16/13 Q1014 BECMG SCT015TCU BKN050
  • 270830Z AUTO 28007KT 240V310 9999 FEW014 BKN045 BKN054 15/12 Q1014 TEMPO SCT025TCU
  • 270800Z AUTO 29006KT 250V320 CAVOK 15/12 Q1014 TEMPO SCT025TCU

TAF TAF LFBA
Valido dal 27 a 09 ore il 27 a 18 ore UTC


270800Z 2709/2718 29006KT 9999 SCT015TCU BKN050
BECMG 2716/2718 BKN035



MetMap, La meteo Aeronautica in un colpo d'occhio ! - Copyright ORBIFLY Dicembre 2007 - Disclaimer

ORBIFLY MET'MAP TEAM :

Programmazione e sviluppo : Alexandra Zaïnal
Concezione : Baudouin d'Aumeries
Supporto tecnico e logistico : Manuel Goepfert
Aiuto : Marc-Olivier Méhu
Aiuto per la traduzione : Arnaldo La Scala




FONTI E CREDITI :

   NOAA